Denton, Montana
Current Conditions -  °F | °C
As of 2:54 PM on Friday 28 Nov 2014 (Local Time) from KLWT Reporting Station
Scattered Clouds Scattered Clouds  
Wind Chill: 55°   Ceiling: Unl
Heat Index: 55°   Visibility: 10mi
Dew Point: 30°   Wind: 21mph
Humidity: 38%   Direction: 260°W
Pressure: 29.45"   Gusts: 29mph
Location:  47.32°N, 109.95°W
Report Text: KLWT 282154Z AUTO 26018G25KT 10SM SCT090 13/M01 A2945 RMK AO2 PK WND 24032/2107 SLP953 T01281011
Loading
Personal Weather Stations






























Interactive Weather Map New forecast layout! Learn more

10-Day Weather Forecast

Advertisements
Track Severe Weather on mobile